createdAt,value
2023-02-16T00:01:25.983Z,6.11
2023-02-16T00:03:55.486Z,6.10
2023-02-16T00:06:23.676Z,6.09
2023-02-16T00:08:55.097Z,6.07
2023-02-16T00:11:45.921Z,6.09
2023-02-16T00:14:15.371Z,6.07
2023-02-16T00:16:43.461Z,6.04
2023-02-16T00:19:18.900Z,6.04
2023-02-16T00:21:46.989Z,6.01
2023-02-16T00:24:16.264Z,6.00
2023-02-16T00:26:45.261Z,5.97
2023-02-16T00:29:17.904Z,5.98
2023-02-16T00:31:45.764Z,5.95
2023-02-16T00:34:27.263Z,5.95
2023-02-16T00:36:55.805Z,5.91
2023-02-16T00:39:26.297Z,5.90
2023-02-16T00:41:55.866Z,5.88
2023-02-16T00:44:30.634Z,5.88
2023-02-16T00:47:00.127Z,5.87
2023-02-16T00:49:29.052Z,5.85
2023-02-16T00:51:57.088Z,5.84
2023-02-16T00:54:26.255Z,5.84
2023-02-16T00:56:54.291Z,5.82
2023-02-16T00:59:24.186Z,5.79
2023-02-16T01:01:52.067Z,5.80
2023-02-16T01:04:23.336Z,5.79
2023-02-16T01:07:08.977Z,5.78
2023-02-16T01:09:55.396Z,5.74
2023-02-16T01:12:23.415Z,5.73
2023-02-16T01:14:54.322Z,5.72
2023-02-16T01:17:25.201Z,5.68
2023-02-16T01:19:54.888Z,5.67
2023-02-16T01:22:22.671Z,5.66
2023-02-16T01:24:51.819Z,5.64
2023-02-16T01:27:19.639Z,5.63
2023-02-16T01:29:47.434Z,5.62
2023-02-16T01:32:17.009Z,5.60
2023-02-16T01:34:44.847Z,5.59
2023-02-16T01:37:15.752Z,5.59
2023-02-16T01:39:44.746Z,5.57
2023-02-16T01:42:34.520Z,5.57
2023-02-16T01:45:05.800Z,5.55
2023-02-16T01:47:40.990Z,5.55
2023-02-16T01:50:16.417Z,5.53
2023-02-16T01:52:45.603Z,5.53
2023-02-16T01:55:19.554Z,5.52
2023-02-16T01:57:51.575Z,5.53
2023-02-16T02:00:33.324Z,5.54
2023-02-16T02:03:18.371Z,5.55
2023-02-16T02:05:46.412Z,5.57
2023-02-16T02:08:22.112Z,5.58
2023-02-16T02:11:01.700Z,5.57
2023-02-16T02:13:37.220Z,5.61
2023-02-16T02:16:06.570Z,5.63
2023-02-16T02:18:35.057Z,5.66
2023-02-16T02:21:45.539Z,5.68
2023-02-16T02:24:43.296Z,5.73
2023-02-16T02:27:21.822Z,5.75
2023-02-16T02:30:22.426Z,5.80
2023-02-16T02:33:03.652Z,5.84
2023-02-16T02:35:45.251Z,5.85
2023-02-16T02:38:20.794Z,5.87
2023-02-16T02:40:59.338Z,5.91
2023-02-16T02:43:36.041Z,5.91
2023-02-16T02:46:10.230Z,5.93
2023-02-16T02:48:38.068Z,5.94
2023-02-16T02:51:30.886Z,5.95
2023-02-16T02:54:25.427Z,5.96
2023-02-16T02:57:18.261Z,5.97
2023-02-16T03:00:10.124Z,5.96
2023-02-16T03:02:41.332Z,5.98
2023-02-16T03:05:12.821Z,5.99
2023-02-16T03:07:49.756Z,5.97
2023-02-16T03:10:39.116Z,5.96
2023-02-16T03:13:14.291Z,5.96
2023-02-16T03:15:47.650Z,5.94
2023-02-16T03:18:34.847Z,5.93
2023-02-16T03:21:21.970Z,5.95
2023-02-16T03:24:09.788Z,5.96
2023-02-16T03:26:55.827Z,5.98
2023-02-16T03:29:25.079Z,5.98
2023-02-16T03:31:56.344Z,5.98
2023-02-16T03:34:25.273Z,5.99
2023-02-16T03:36:58.456Z,6.00
2023-02-16T03:39:26.976Z,6.02
2023-02-16T03:41:57.015Z,6.03
2023-02-16T03:44:25.842Z,6.04
2023-02-16T03:46:54.979Z,6.05
2023-02-16T03:49:22.831Z,6.06
2023-02-16T03:51:50.580Z,6.07
2023-02-16T03:54:18.334Z,6.07
2023-02-16T03:56:46.067Z,6.09
2023-02-16T03:59:13.793Z,6.09
2023-02-16T04:01:41.604Z,6.10
2023-02-16T04:04:10.815Z,6.12
2023-02-16T04:06:38.795Z,6.13
2023-02-16T04:09:06.663Z,6.12
2023-02-16T04:11:51.862Z,6.14
2023-02-16T04:14:19.653Z,6.16
2023-02-16T04:16:47.477Z,6.16
2023-02-16T04:19:16.679Z,6.17
2023-02-16T04:21:44.435Z,6.17
2023-02-16T04:24:12.239Z,6.17
2023-02-16T04:26:40.022Z,6.18
2023-02-16T04:29:07.811Z,6.18
2023-02-16T04:31:35.666Z,6.19
2023-02-16T04:34:03.561Z,6.19
2023-02-16T04:36:32.690Z,6.21
2023-02-16T04:39:00.431Z,6.20
2023-02-16T04:41:28.264Z,6.21
2023-02-16T04:43:56.050Z,6.21
2023-02-16T04:46:23.987Z,6.21
2023-02-16T04:48:51.891Z,6.21
2023-02-16T04:51:19.662Z,6.21
2023-02-16T04:53:48.753Z,6.21
2023-02-16T04:56:17.035Z,6.21
2023-02-16T04:58:44.803Z,6.20
2023-02-16T05:01:19.974Z,6.22
2023-02-16T05:03:47.977Z,6.21
2023-02-16T05:06:16.124Z,6.22
2023-02-16T05:08:43.910Z,6.23
2023-02-16T05:11:31.101Z,6.24
2023-02-16T05:14:16.675Z,6.24
2023-02-16T05:16:45.336Z,6.24
2023-02-16T05:19:14.097Z,6.27
2023-02-16T05:21:41.844Z,6.27
2023-02-16T05:24:11.315Z,6.27
2023-02-16T05:26:40.998Z,6.26
2023-02-16T05:29:08.777Z,6.26
2023-02-16T05:31:36.672Z,6.26
2023-02-16T05:34:04.620Z,6.26
2023-02-16T05:36:32.356Z,6.24
2023-02-16T05:39:00.317Z,6.25
2023-02-16T05:41:28.164Z,6.25
2023-02-16T05:43:59.427Z,6.26
2023-02-16T05:46:28.788Z,6.24
2023-02-16T05:48:56.600Z,6.24
2023-02-16T05:51:24.477Z,6.23
2023-02-16T05:53:52.548Z,6.23
2023-02-16T05:56:21.394Z,6.22
2023-02-16T05:58:49.588Z,6.20
2023-02-16T06:01:18.587Z,6.22
2023-02-16T06:03:46.866Z,6.21
2023-02-16T06:06:14.740Z,6.19
2023-02-16T06:08:42.565Z,6.18
2023-02-16T06:11:31.177Z,6.18
2023-02-16T06:13:59.551Z,6.16
2023-02-16T06:16:30.018Z,6.15
2023-02-16T06:18:58.660Z,6.16
2023-02-16T06:21:26.743Z,6.17
2023-02-16T06:23:54.967Z,6.15
2023-02-16T06:26:22.560Z,6.16
2023-02-16T06:28:50.370Z,6.13
2023-02-16T06:31:18.397Z,6.14
2023-02-16T06:33:47.986Z,6.16
2023-02-16T06:36:16.412Z,6.15
2023-02-16T06:38:45.443Z,6.13
2023-02-16T06:41:13.806Z,6.12
2023-02-16T06:43:41.649Z,6.12
2023-02-16T06:46:09.424Z,6.13
2023-02-16T06:48:37.246Z,6.15
2023-02-16T06:51:07.063Z,6.15
2023-02-16T06:53:35.072Z,6.16
2023-02-16T06:56:02.850Z,6.16
2023-02-16T06:58:30.594Z,6.17
2023-02-16T07:00:58.441Z,6.16
2023-02-16T07:03:26.292Z,6.15
2023-02-16T07:05:54.212Z,6.15
2023-02-16T07:08:23.392Z,6.16
2023-02-16T07:10:51.200Z,6.18
2023-02-16T07:13:19.091Z,6.22
2023-02-16T07:15:47.315Z,6.28
2023-02-16T07:18:14.957Z,6.32
2023-02-16T07:20:42.808Z,6.33
2023-02-16T07:23:10.615Z,6.34
2023-02-16T07:25:39.754Z,6.38
2023-02-16T07:28:07.777Z,6.41
2023-02-16T07:30:36.561Z,6.44
2023-02-16T07:33:06.590Z,6.47
2023-02-16T07:35:34.694Z,6.50
2023-02-16T07:38:02.771Z,6.51
2023-02-16T07:40:30.619Z,6.52
2023-02-16T07:43:02.318Z,6.55
2023-02-16T07:45:32.650Z,6.56
2023-02-16T07:48:00.717Z,6.60
2023-02-16T07:50:28.607Z,6.62
2023-02-16T07:52:56.391Z,6.63
2023-02-16T07:55:24.173Z,6.66
2023-02-16T07:57:55.377Z,6.66
2023-02-16T08:00:24.928Z,6.67
2023-02-16T08:02:53.230Z,6.71
2023-02-16T08:05:21.188Z,6.73
2023-02-16T08:07:48.995Z,6.75
2023-02-16T08:10:17.301Z,6.77
2023-02-16T08:12:45.141Z,6.80
2023-02-16T08:15:13.512Z,6.82
2023-02-16T08:17:43.483Z,6.84
2023-02-16T08:20:11.949Z,6.86
2023-02-16T08:22:39.721Z,6.90
2023-02-16T08:25:08.201Z,6.94
2023-02-16T08:27:36.566Z,6.98
2023-02-16T08:30:05.834Z,7.00
2023-02-16T08:32:33.696Z,7.02
2023-02-16T08:35:02.898Z,7.03
2023-02-16T08:37:30.671Z,7.08
2023-02-16T08:40:00.746Z,7.09
2023-02-16T08:42:28.584Z,7.11
2023-02-16T08:44:56.512Z,7.11
2023-02-16T08:47:24.339Z,7.15
2023-02-16T08:49:52.153Z,7.16
2023-02-16T08:52:21.389Z,7.19
2023-02-16T08:54:49.360Z,7.21
2023-02-16T08:57:18.557Z,7.22
2023-02-16T09:00:06.316Z,7.25
2023-02-16T09:02:34.163Z,7.28
2023-02-16T09:05:01.967Z,7.29
2023-02-16T09:07:34.865Z,7.31
2023-02-16T09:10:02.844Z,7.30
2023-02-16T09:12:33.007Z,7.28
2023-02-16T09:15:01.242Z,7.27
2023-02-16T09:17:29.642Z,7.25
2023-02-16T09:19:57.417Z,7.21
2023-02-16T09:22:25.300Z,7.21
2023-02-16T09:24:54.794Z,7.15
2023-02-16T09:27:22.690Z,7.13
2023-02-16T09:29:51.340Z,7.07
2023-02-16T09:32:19.185Z,7.07
2023-02-16T09:34:50.029Z,7.03
2023-02-16T09:37:17.886Z,7.01
2023-02-16T09:39:45.631Z,7.04
2023-02-16T09:42:29.660Z,7.08
2023-02-16T09:45:07.484Z,7.08
2023-02-16T09:47:39.488Z,7.08
2023-02-16T09:50:16.240Z,7.10
2023-02-16T09:52:52.121Z,7.11
2023-02-16T09:55:22.444Z,7.12
2023-02-16T09:58:03.123Z,7.08
2023-02-16T10:00:44.736Z,7.02
2023-02-16T10:03:34.819Z,7.03
2023-02-16T10:06:17.479Z,7.03
2023-02-16T10:08:48.928Z,7.05
2023-02-16T10:11:41.770Z,7.05
2023-02-16T10:14:18.534Z,7.01
2023-02-16T10:16:53.864Z,7.01
2023-02-16T10:19:25.289Z,7.02
2023-02-16T10:21:59.391Z,7.03
2023-02-16T10:24:31.268Z,7.07
2023-02-16T10:27:04.285Z,7.14
2023-02-16T10:29:33.535Z,7.21
2023-02-16T10:32:13.456Z,7.29
2023-02-16T10:34:50.099Z,7.37
2023-02-16T10:37:30.874Z,7.41
2023-02-16T10:40:21.632Z,7.48
2023-02-16T10:42:56.391Z,7.47
2023-02-16T10:45:31.934Z,7.53
2023-02-16T10:48:00.380Z,7.63
2023-02-16T10:50:33.091Z,7.68
2023-02-16T10:53:05.255Z,7.75
2023-02-16T10:55:33.071Z,7.79
2023-02-16T10:58:03.065Z,7.84
2023-02-16T11:00:54.398Z,7.84
2023-02-16T11:03:29.398Z,7.85
2023-02-16T11:05:57.040Z,8.00
2023-02-16T11:08:25.749Z,8.01
2023-02-16T11:10:55.289Z,8.07
2023-02-16T11:13:32.911Z,8.22
2023-02-16T11:16:07.715Z,8.18
2023-02-16T11:18:39.819Z,8.24
2023-02-16T11:21:09.843Z,8.23
2023-02-16T11:23:39.160Z,8.28
2023-02-16T11:26:09.109Z,8.29
2023-02-16T11:28:39.007Z,8.36
2023-02-16T11:31:17.004Z,8.44
2023-02-16T11:33:56.383Z,8.51
2023-02-16T11:36:31.619Z,8.56
2023-02-16T11:39:02.803Z,8.56
2023-02-16T11:41:33.378Z,8.55
2023-02-16T11:44:03.042Z,8.65
2023-02-16T11:46:40.562Z,8.72
2023-02-16T11:49:23.305Z,8.70
2023-02-16T11:51:51.190Z,8.67
2023-02-16T11:54:19.432Z,8.71
2023-02-16T11:57:01.568Z,8.81
2023-02-16T11:59:35.469Z,8.79
2023-02-16T12:02:37.036Z,8.89
2023-02-16T12:05:22.836Z,8.98
2023-02-16T12:08:04.834Z,9.00
2023-02-16T12:10:40.043Z,9.22
2023-02-16T12:13:19.047Z,9.38
2023-02-16T12:15:53.658Z,9.49
2023-02-16T12:18:32.430Z,9.59
2023-02-16T12:21:09.274Z,9.68
2023-02-16T12:23:40.966Z,9.68
2023-02-16T12:26:24.925Z,9.87
2023-02-16T12:29:04.514Z,10.40
2023-02-16T12:31:47.314Z,10.80
2023-02-16T12:34:24.778Z,10.86
2023-02-16T12:37:03.534Z,10.94
2023-02-16T12:39:38.523Z,11.38
2023-02-16T12:42:36.882Z,11.40
2023-02-16T12:45:09.899Z,11.76
2023-02-16T12:47:42.618Z,11.88
2023-02-16T12:50:20.850Z,12.12
2023-02-16T12:52:54.007Z,12.23
2023-02-16T12:55:25.970Z,12.19
2023-02-16T12:58:01.534Z,12.31
2023-02-16T13:00:41.711Z,12.41
2023-02-16T13:03:21.842Z,12.75
2023-02-16T13:06:00.031Z,12.47
2023-02-16T13:08:39.229Z,12.93
2023-02-16T13:11:15.476Z,13.39
2023-02-16T13:13:45.871Z,13.69
2023-02-16T13:16:29.446Z,12.78
2023-02-16T13:18:58.209Z,12.50
2023-02-16T13:21:51.196Z,13.04
2023-02-16T13:24:32.712Z,12.92
2023-02-16T13:27:16.183Z,12.46
2023-02-16T13:30:00.239Z,12.19
2023-02-16T13:32:50.011Z,12.22
2023-02-16T13:35:43.171Z,11.94
2023-02-16T13:38:43.074Z,12.20
2023-02-16T13:41:35.404Z,13.07
2023-02-16T13:44:08.923Z,12.95
2023-02-16T13:46:41.430Z,13.83
2023-02-16T13:49:42.380Z,13.57
2023-02-16T13:52:11.396Z,14.17
2023-02-16T13:54:43.657Z,14.26
2023-02-16T13:57:12.822Z,13.90
2023-02-16T14:00:02.090Z,13.42
2023-02-16T14:02:54.372Z,12.93
2023-02-16T14:05:28.666Z,12.80
2023-02-16T14:08:19.089Z,12.62
2023-02-16T14:11:09.888Z,12.33
2023-02-16T14:13:55.500Z,12.17
2023-02-16T14:16:41.315Z,12.22
2023-02-16T14:19:20.332Z,12.01
2023-02-16T14:21:50.489Z,11.99
2023-02-16T14:24:31.201Z,11.89
2023-02-16T14:27:02.883Z,11.88
2023-02-16T14:29:34.018Z,11.90
2023-02-16T14:32:07.721Z,11.93
2023-02-16T14:34:43.286Z,12.00
2023-02-16T14:37:32.823Z,12.04
2023-02-16T14:40:15.824Z,11.94
2023-02-16T14:42:58.108Z,11.92
2023-02-16T14:45:59.813Z,11.92
2023-02-16T14:48:39.778Z,11.85
2023-02-16T14:51:40.677Z,11.87
2023-02-16T14:54:32.029Z,11.74
2023-02-16T14:57:05.938Z,11.65
2023-02-16T14:59:41.619Z,11.58
2023-02-16T15:02:28.222Z,11.50
2023-02-16T15:04:56.845Z,11.45
2023-02-16T15:07:26.695Z,11.47
2023-02-16T15:09:58.579Z,11.44
2023-02-16T15:12:41.175Z,11.42
2023-02-16T15:15:20.384Z,11.19
2023-02-16T15:17:50.052Z,10.99
2023-02-16T15:20:24.917Z,10.84
2023-02-16T15:22:54.602Z,10.68
2023-02-16T15:25:26.845Z,10.57
2023-02-16T15:27:58.998Z,10.44
2023-02-16T15:30:31.618Z,10.35
2023-02-16T15:33:02.280Z,10.29
2023-02-16T15:35:34.244Z,10.20
2023-02-16T15:38:04.867Z,10.11
2023-02-16T15:40:35.158Z,10.02
2023-02-16T15:43:10.861Z,9.98
2023-02-16T15:45:40.487Z,9.86
2023-02-16T15:48:16.427Z,9.79
2023-02-16T15:50:46.247Z,9.65
2023-02-16T15:53:16.524Z,9.58
2023-02-16T15:55:46.693Z,9.52
2023-02-16T15:58:16.433Z,9.45
2023-02-16T16:00:47.685Z,9.36
2023-02-16T16:03:18.090Z,9.39
2023-02-16T16:05:59.693Z,9.30
2023-02-16T16:08:28.388Z,9.33
2023-02-16T16:10:56.656Z,9.19
2023-02-16T16:13:27.377Z,9.17
2023-02-16T16:16:01.786Z,9.16
2023-02-16T16:18:44.638Z,9.12
2023-02-16T16:21:21.426Z,9.11
2023-02-16T16:24:01.533Z,9.08
2023-02-16T16:26:32.107Z,9.05
2023-02-16T16:29:01.873Z,9.02
2023-02-16T16:31:42.571Z,9.04
2023-02-16T16:34:31.091Z,8.97
2023-02-16T16:36:59.580Z,9.01
2023-02-16T16:39:29.135Z,8.90
2023-02-16T16:42:26.778Z,8.95
2023-02-16T16:45:06.082Z,8.87
2023-02-16T16:47:38.770Z,8.86
2023-02-16T16:50:31.764Z,8.93
2023-02-16T16:52:59.585Z,8.84
2023-02-16T16:55:31.221Z,8.84
2023-02-16T16:58:01.194Z,8.81
2023-02-16T17:00:34.069Z,8.80
2023-02-16T17:03:03.992Z,8.82
2023-02-16T17:05:31.932Z,8.82
2023-02-16T17:07:59.794Z,8.81
2023-02-16T17:10:27.799Z,8.82
2023-02-16T17:12:58.936Z,8.85
2023-02-16T17:15:34.885Z,8.86
2023-02-16T17:18:05.223Z,8.87
2023-02-16T17:20:33.302Z,8.88
2023-02-16T17:23:04.625Z,8.88
2023-02-16T17:25:35.976Z,8.91
2023-02-16T17:28:05.030Z,8.92
2023-02-16T17:30:33.236Z,8.93
2023-02-16T17:33:00.842Z,9.01
2023-02-16T17:35:31.527Z,8.93
2023-02-16T17:37:59.379Z,8.95
2023-02-16T17:40:27.378Z,8.95
2023-02-16T17:42:55.312Z,8.98
2023-02-16T17:45:23.217Z,8.97
2023-02-16T17:47:52.981Z,9.02
2023-02-16T17:50:21.389Z,8.99
2023-02-16T17:52:57.001Z,8.99
2023-02-16T17:55:25.004Z,8.99
2023-02-16T17:57:52.943Z,8.99
2023-02-16T18:00:22.693Z,9.01
2023-02-16T18:02:50.518Z,9.00
2023-02-16T18:05:18.471Z,8.98
2023-02-16T18:07:46.301Z,8.99
2023-02-16T18:10:31.715Z,9.00
2023-02-16T18:12:59.619Z,8.99
2023-02-16T18:15:27.452Z,9.03
2023-02-16T18:17:55.589Z,9.04
2023-02-16T18:20:23.677Z,9.09
2023-02-16T18:22:51.555Z,9.03
2023-02-16T18:25:21.062Z,9.00
2023-02-16T18:27:49.007Z,9.00
2023-02-16T18:30:17.978Z,9.00
2023-02-16T18:32:45.976Z,9.02
2023-02-16T18:35:14.904Z,9.06
2023-02-16T18:37:42.873Z,9.05
2023-02-16T18:40:13.755Z,9.06
2023-02-16T18:42:42.962Z,9.07
2023-02-16T18:45:11.101Z,9.05
2023-02-16T18:47:39.092Z,9.13
2023-02-16T18:50:08.009Z,9.05
2023-02-16T18:52:35.807Z,9.08
2023-02-16T18:55:03.549Z,9.08
2023-02-16T18:57:31.385Z,9.09
2023-02-16T19:00:00.568Z,9.06
2023-02-16T19:02:28.355Z,9.09
2023-02-16T19:04:56.198Z,9.09
2023-02-16T19:07:24.052Z,9.08
2023-02-16T19:09:51.863Z,9.11
2023-02-16T19:12:19.654Z,9.12
2023-02-16T19:14:47.497Z,9.11
2023-02-16T19:17:16.725Z,9.11
2023-02-16T19:19:44.840Z,9.11
2023-02-16T19:22:12.479Z,9.21
2023-02-16T19:24:40.296Z,9.12
2023-02-16T19:27:08.063Z,9.13
2023-02-16T19:29:35.891Z,9.12
2023-02-16T19:32:04.044Z,9.14
2023-02-16T19:34:33.225Z,9.20
2023-02-16T19:37:01.121Z,9.13
2023-02-16T19:39:28.962Z,9.13
2023-02-16T19:41:56.762Z,9.16
2023-02-16T19:44:24.562Z,9.14
2023-02-16T19:46:52.351Z,9.15
2023-02-16T19:49:20.240Z,9.17
2023-02-16T19:51:49.404Z,9.16
2023-02-16T19:54:17.261Z,9.15
2023-02-16T19:56:45.073Z,9.14
2023-02-16T19:59:12.957Z,9.15
2023-02-16T20:01:40.796Z,9.16
2023-02-16T20:04:08.780Z,9.16
2023-02-16T20:06:39.206Z,9.18
2023-02-16T20:09:11.047Z,9.18
2023-02-16T20:11:39.507Z,9.20
2023-02-16T20:14:07.269Z,9.22
2023-02-16T20:16:35.312Z,9.22
2023-02-16T20:19:03.482Z,9.25
2023-02-16T20:21:31.435Z,9.34
2023-02-16T20:24:01.919Z,9.26
2023-02-16T20:26:34.525Z,9.26
2023-02-16T20:29:03.022Z,9.29
2023-02-16T20:31:33.819Z,9.29
2023-02-16T20:34:02.640Z,9.31
2023-02-16T20:36:31.595Z,9.34
2023-02-16T20:38:59.518Z,9.34
2023-02-16T20:41:27.440Z,9.35
2023-02-16T20:43:56.565Z,9.39
2023-02-16T20:46:24.898Z,9.41
2023-02-16T20:48:53.941Z,9.41
2023-02-16T20:51:22.536Z,9.44
2023-02-16T20:53:50.689Z,9.44
2023-02-16T20:56:20.670Z,9.53
2023-02-16T20:58:50.789Z,9.46
2023-02-16T21:01:22.666Z,9.47
2023-02-16T21:03:51.960Z,9.47
2023-02-16T21:06:20.078Z,9.49
2023-02-16T21:08:47.956Z,9.56
2023-02-16T21:11:17.477Z,9.49
2023-02-16T21:13:45.734Z,9.50
2023-02-16T21:16:14.993Z,9.50
2023-02-16T21:18:44.493Z,9.51
2023-02-16T21:21:15.941Z,9.50
2023-02-16T21:23:44.193Z,9.51
2023-02-16T21:26:12.284Z,9.59
2023-02-16T21:28:40.289Z,9.53
2023-02-16T21:31:11.234Z,9.52
2023-02-16T21:33:39.608Z,9.52
2023-02-16T21:36:10.937Z,9.54
2023-02-16T21:38:40.203Z,9.52
2023-02-16T21:41:27.440Z,9.53
2023-02-16T21:43:57.828Z,9.53
2023-02-16T21:46:26.353Z,9.53
2023-02-16T21:48:55.011Z,9.54
2023-02-16T21:51:26.423Z,9.52
2023-02-16T21:53:54.362Z,9.53
2023-02-16T21:56:30.464Z,9.54
2023-02-16T21:58:58.635Z,9.53
2023-02-16T22:01:27.376Z,9.58
2023-02-16T22:03:58.573Z,9.52
2023-02-16T22:06:29.584Z,9.53
2023-02-16T22:08:57.355Z,9.52
2023-02-16T22:11:25.351Z,9.51
2023-02-16T22:13:57.057Z,9.53
2023-02-16T22:16:26.402Z,9.51
2023-02-16T22:18:58.352Z,9.53
2023-02-16T22:21:28.402Z,9.52
2023-02-16T22:23:57.616Z,9.53
2023-02-16T22:26:26.604Z,9.53
2023-02-16T22:28:54.763Z,9.53
2023-02-16T22:31:23.583Z,9.58
2023-02-16T22:33:56.800Z,9.50
2023-02-16T22:36:25.231Z,9.50
2023-02-16T22:38:54.895Z,9.50
2023-02-16T22:41:23.497Z,9.49
2023-02-16T22:43:54.003Z,9.50
2023-02-16T22:46:22.224Z,9.48
2023-02-16T22:48:50.075Z,9.49
2023-02-16T22:51:18.634Z,9.49
2023-02-16T22:53:46.828Z,9.47
2023-02-16T22:56:18.421Z,9.48
2023-02-16T22:58:46.704Z,9.49
2023-02-16T23:01:15.875Z,9.48
2023-02-16T23:03:44.070Z,9.50
2023-02-16T23:06:14.711Z,9.48
2023-02-16T23:08:43.092Z,9.48
2023-02-16T23:11:11.413Z,9.50
2023-02-16T23:13:40.557Z,9.50
2023-02-16T23:16:11.746Z,9.50
2023-02-16T23:18:39.692Z,9.49
2023-02-16T23:21:08.901Z,9.49
2023-02-16T23:23:36.984Z,9.49
2023-02-16T23:26:07.001Z,9.51
2023-02-16T23:28:35.314Z,9.50
2023-02-16T23:31:04.424Z,9.56
2023-02-16T23:33:32.494Z,9.49
2023-02-16T23:36:00.663Z,9.49
2023-02-16T23:38:28.369Z,9.55
2023-02-16T23:40:57.553Z,9.49
2023-02-16T23:43:26.472Z,9.50
2023-02-16T23:45:54.688Z,9.50
2023-02-16T23:48:24.430Z,9.52
2023-02-16T23:50:53.786Z,9.52
2023-02-16T23:53:22.730Z,9.52
2023-02-16T23:55:58.670Z,9.53
2023-02-16T23:58:28.081Z,9.52
